Latest Weather Observations for Leonora Airport

IDW60801

Issued at 2:03 pm WST Thursday 30 July 2015 (issued every 30 minutes, with the page automatically refreshed every 10 minutes)

About weather observations | Map of weather stations | Latest weather observations for WA | Other Formats
Station Details ID: 012241 Name: LEONORA AERO Lat: -28.88 Lon: 121.32 Height: 370.0 m
Data from the previous 72 hours. | See also: Recent months at Leonora Airport
Date/Time
WST
Temp
°C
App
Temp
°C
Dew
Point
Rel
Hum
%
Delta-T
°C
Wind Press
QNH
hPa
Press
MSL
hPa
Rain
since 9 am
mm
Dir
 
Spd
km/h
Gust
km/h
Spd
kts
Gust
kts
30/02:00pm 22.1 22.5 14.7 63 4.4 SE 6 13 3 7 1020.8 1020.7 0.2
30/01:30pm 21.9 23.0 14.5 63 4.4 SSE 2 7 1 4 1021.2 1021.1 0.2
30/01:00pm 21.8 22.6 14.9 65 4.1 ESE 4 13 2 7 1021.5 1021.4 0.2
30/12:30pm 21.3 22.2 15.2 68 3.7 E 4 9 2 5 1021.9 1021.8 0.2
30/12:19pm 21.4 22.1 15.7 70 3.5 E 6 11 3 6 1022.2 1022.1 0.2
30/12:00pm 20.4 20.3 15.0 71 3.2 ENE 9 13 5 7 1022.4 1022.3 0.2
30/11:41am 19.9 20.1 15.7 77 2.5 E 9 13 5 7 1022.7 1022.6 0.0
30/11:39am 19.5 19.6 15.6 78 2.3 E 9 13 5 7 1022.7 1022.6 0.0
30/11:30am 19.3 19.4 15.4 78 2.3 ESE 9 15 5 8 1023.0 1022.9 0.0
30/11:18am 19.4 20.0 15.9 80 2.1 ESE 7 15 4 8 1023.3 1023.2 0.0
30/11:11am 18.8 18.5 15.5 81 2.0 ESE 11 15 6 8 1023.4 1023.4 0.0
30/11:00am 18.6 18.3 15.5 82 1.8 E 11 17 6 9 1023.4 1023.4 0.0
30/10:52am 18.7 18.5 15.6 82 1.9 ESE 11 17 6 9 1023.6 1023.6 0.0
30/10:30am 18.2 18.2 15.1 82 1.8 ESE 9 13 5 7 1024.0 1023.9 0.0
30/10:27am 18.2 18.2 15.3 83 1.7 ESE 9 13 5 7 1024.0 1023.9 0.0
30/10:00am 17.7 19.1 14.4 81 1.9 CALM 0 7 0 4 1024.3 1024.2 0.0
30/09:33am 16.8 18.1 14.1 84 1.6 CALM 0 0 0 0 1024.4 1024.3 0.0
30/09:30am 16.8 18.1 14.1 84 1.6 CALM 0 0 0 0 1024.3 1024.2 0.0
30/09:00am 16.3 17.6 14.0 86 1.3 CALM 0 0 0 0 1024.2 1024.1 12.2
30/08:30am 15.6 16.5 14.0 90 0.9 SSE 2 7 1 4 1023.8 1023.8 12.2
30/08:00am 15.7 15.7 14.2 91 0.9 S 7 9 4 5 1023.5 1023.5 12.2
30/07:30am 15.4 16.7 14.1 92 0.7 CALM 0 4 0 2 1022.9 1022.8 12.2
30/07:00am 14.9 13.6 13.6 92 0.7 N 13 17 7 9 1021.9 1021.8 12.2
30/06:30am 15.0 14.6 14.0 94 0.6 NNW 9 13 5 7 1022.0 1021.9 12.2
30/06:00am 14.9 14.9 14.3 96 0.3 NNE 7 11 4 6 1022.0 1021.9 12.2
30/05:30am 14.9 16.2 14.1 95 0.5 CALM 0 0 0 0 1022.0 1021.9 12.2
30/05:00am 15.3 16.4 14.7 96 0.3 NNW 2 6 1 3 1021.9 1021.8 12.2
30/04:30am 15.4 16.5 14.6 95 0.5 W 2 7 1 4 1021.8 1021.7 12.2
30/04:00am 15.7 15.9 14.7 94 0.6 W 7 9 4 5 1021.8 1021.7 12.2
30/03:30am 16.0 15.7 14.5 91 0.9 NNE 9 13 5 7 1021.4 1021.3 12.2
30/03:00am 15.9 17.5 14.9 94 0.6 CALM 0 0 0 0 1021.9 1021.8 12.2
30/02:30am 15.9 15.8 14.9 94 0.6 SW 9 11 5 6 1022.2 1022.1 12.2
30/02:00am 16.3 17.0 14.5 89 1.0 N 4 7 2 4 1021.8 1021.7 12.2
30/01:30am 16.5 16.7 14.7 89 1.1 N 7 11 4 6 1021.9 1021.8 12.2
30/01:00am 16.7 16.7 15.1 90 0.9 NNE 9 11 5 6 1022.0 1021.9 12.2
30/12:30am 16.7 17.3 15.2 91 0.9 NNW 6 9 3 5 1022.6 1022.5 12.2
30/12:00am 16.9 17.0 15.6 92 0.8 NW 9 11 5 6 1023.1 1023.0 12.2
 
Date/Time
WST
Temp
°C
App
Temp
°C
Dew
Point
Rel
Hum
%
Delta-T
°C
Wind Press
QNH
hPa
Press
MSL
hPa
Rain
since 9 am
mm
Dir
 
Spd
km/h
Gust
km/h
Spd
kts
Gust
kts
29/11:32pm 17.1 17.3 15.8 92 0.8 NW 9 13 5 7 1023.3 1023.2 12.0
29/11:30pm 17.0 17.2 15.7 92 0.8 NW 9 13 5 7 1023.3 1023.2 12.0
29/11:00pm 17.3 17.2 16.0 92 0.8 WNW 11 17 6 9 1023.3 1023.2 12.0
29/10:38pm 17.6 17.1 16.8 95 0.5 WNW 15 24 8 13 1023.2 1023.1 12.0
29/10:30pm 17.8 17.0 17.2 96 0.4 W 17 22 9 12 1023.3 1023.2 12.0
29/10:21pm 17.9 17.2 17.4 97 0.3 WSW 17 26 9 14 1023.0 1022.9 11.6
29/10:00pm 18.0 17.8 17.5 97 0.3 W 15 20 8 11 1022.6 1022.5 9.6
29/09:30pm 17.8 16.9 16.8 94 0.6 SW 17 22 9 12 1022.1 1022.0 6.2
29/09:22pm 18.3 18.5 16.8 91 0.9 SSW 11 19 6 10 1021.8 1021.7 1.6
29/09:00pm 18.5 18.9 16.3 87 1.3 SSE 9 11 5 6 1020.9 1020.8 0.2
29/08:30pm 19.0 20.9 15.7 81 2.0 CALM 0 0 0 0 1020.9 1020.8 0.0
29/08:00pm 18.9 20.6 15.2 79 2.2 CALM 0 0 0 0 1020.7 1020.6 0.0
29/07:30pm 18.8 20.5 15.3 80 2.1 CALM 0 0 0 0 1020.7 1020.6 0.0
29/07:00pm 19.4 21.1 15.1 76 2.6 CALM 0 0 0 0 1020.5 1020.4 0.0
29/06:30pm 20.0 20.5 15.0 73 3.0 NW 6 7 3 4 1020.2 1020.1 0.0
29/06:00pm 21.1 21.7 15.4 70 3.4 WNW 6 7 3 4 1020.0 1019.9 0.0
29/05:30pm 21.9 22.0 15.5 67 3.9 NW 9 13 5 7 1019.8 1019.7 0.0
29/05:00pm 22.5 21.4 15.4 64 4.3 WNW 15 20 8 11 1019.7 1019.6 0.0
29/04:30pm 23.2 21.6 15.0 60 5.0 WNW 17 24 9 13 1019.6 1019.5 0.0
29/04:00pm 23.6 21.5 14.6 57 5.4 WNW 19 30 10 16 1019.4 1019.3 0.0
29/03:30pm 23.9 21.6 14.6 56 5.6 WNW 20 30 11 16 1019.2 1019.1 0.0
29/03:00pm 24.1 21.6 14.2 54 5.9 WNW 20 30 11 16 1019.1 1019.0 0.0
29/02:30pm 24.3 21.4 14.1 53 6.1 WNW 22 32 12 17 1019.1 1019.0 0.0
29/02:00pm 23.9 21.3 13.7 53 6.0 W 20 28 11 15 1019.1 1019.0 0.0
29/01:30pm 23.9 21.3 13.7 53 6.1 W 20 30 11 16 1019.2 1019.1 0.0
29/01:00pm 23.8 21.2 13.9 54 5.9 WNW 20 35 11 19 1019.6 1019.5 0.0
29/12:30pm 23.4 21.0 14.4 57 5.4 WNW 20 32 11 17 1019.9 1019.8 0.0
29/12:00pm 22.8 20.4 14.4 59 5.0 W 20 28 11 15 1020.4 1020.3 0.0
29/11:30am 22.0 19.2 14.4 62 4.5 W 22 32 12 17 1021.0 1020.9 0.0
29/11:00am 21.4 18.2 14.3 64 4.2 W 24 30 13 16 1021.2 1021.1 0.0
29/10:30am 21.1 17.6 13.5 62 4.4 W 24 33 13 18 1021.7 1021.6 0.0
29/10:00am 21.0 18.8 13.4 62 4.4 W 17 24 9 13 1021.9 1021.8 0.0
29/09:30am 20.0 17.3 11.7 59 4.7 WNW 17 22 9 12 1021.9 1021.8 0.0
29/09:00am 18.9 17.3 11.5 62 4.1 WNW 11 19 6 10 1021.8 1021.7 0.8
29/08:30am 17.4 15.5 11.7 69 3.2 NW 13 19 7 10 1021.7 1021.6 0.8
29/08:00am 16.3 13.8 11.2 72 2.8 NNW 15 19 8 10 1021.3 1021.2 0.8
29/07:30am 14.6 12.6 11.4 81 1.7 NNW 13 17 7 9 1020.9 1020.8 0.8
29/07:00am 12.6 11.7 11.5 93 0.6 N 7 9 4 5 1020.7 1020.6 0.8
29/06:30am 12.1 11.2 11.2 94 0.5 NNW 7 9 4 5 1020.6 1020.5 0.6
29/06:00am 11.7 11.9 10.6 93 0.6 CALM 0 0 0 0 1020.5 1020.4 0.6
29/05:30am 12.0 11.8 10.6 91 0.7 W 2 7 1 4 1020.2 1020.1 0.6
29/05:00am 12.4 11.3 10.8 90 0.8 WNW 7 9 4 5 1020.0 1019.9 0.6
29/04:30am 13.1 12.2 11.3 89 1.0 WNW 7 9 4 5 1019.8 1019.7 0.6
29/04:00am 13.8 13.6 11.7 87 1.1 WSW 4 6 2 3 1019.9 1019.8 0.6
29/03:30am 14.2 13.7 11.9 86 1.3 W 6 7 3 4 1020.0 1019.9 0.6
29/03:00am 14.2 14.9 12.2 88 1.1 CALM 0 0 0 0 1019.9 1019.8 0.6
29/02:30am 14.2 14.9 12.1 87 1.2 CALM 0 0 0 0 1019.7 1019.6 0.6
29/02:00am 14.0 13.9 12.0 88 1.1 NE 4 9 2 5 1020.0 1019.9 0.6
29/01:30am 13.9 13.4 11.9 88 1.1 WNW 6 9 3 5 1020.6 1020.5 0.6
29/01:00am 13.9 13.4 11.9 88 1.1 WSW 6 9 3 5 1020.8 1020.7 0.6
29/12:30am 14.3 14.4 11.5 83 1.5 N 2 7 1 4 1020.7 1020.6 0.6
29/12:00am 14.8 14.6 11.9 83 1.6 NE 4 7 2 4 1020.4 1020.3 0.6
 
Date/Time
WST
Temp
°C
App
Temp
°C
Dew
Point
Rel
Hum
%
Delta-T
°C
Wind Press
QNH
hPa
Press
MSL
hPa
Rain
since 9 am
mm
Dir
 
Spd
km/h
Gust
km/h
Spd
kts
Gust
kts
28/11:30pm 14.7 15.3 11.8 83 1.6 CALM 0 0 0 0 1021.3 1021.2 0.6
28/11:00pm 15.0 13.9 11.8 81 1.8 NW 9 13 5 7 1022.0 1021.9 0.6
28/10:30pm 15.5 14.8 11.9 79 2.0 WNW 7 9 4 5 1022.1 1022.0 0.4
28/10:00pm 15.5 14.3 11.7 78 2.1 N 9 11 5 6 1021.9 1021.8 0.4
28/09:30pm 15.2 14.1 11.8 80 1.9 NE 9 13 5 7 1021.7 1021.6 0.4
28/09:00pm 14.9 14.4 11.9 82 1.6 NE 6 9 3 5 1021.7 1021.6 0.4
28/08:30pm 15.3 15.1 11.9 80 1.9 WSW 4 11 2 6 1022.5 1022.4 0.4
28/08:00pm 15.4 14.6 11.6 78 2.1 S 7 11 4 6 1022.1 1022.0 0.4
28/07:30pm 16.2 15.1 11.8 75 2.4 S 9 11 5 6 1022.2 1022.1 0.4
28/07:00pm 16.9 15.9 11.0 68 3.2 SE 7 11 4 6 1021.3 1021.2 0.0
28/06:30pm 18.9 17.6 9.1 53 5.2 ENE 6 7 3 4 1020.7 1020.6 0.0
28/06:00pm 19.7 17.9 7.8 46 6.2 N 7 9 4 5 1020.6 1020.5 0.0
28/05:30pm 21.3 17.7 4.8 34 8.2 NNW 13 19 7 10 1020.5 1020.4 0.0
28/05:00pm 22.1 16.9 3.7 30 9.0 NNW 20 28 11 15 1020.2 1020.1 0.0
28/04:30pm 22.6 16.6 3.2 28 9.5 NNW 24 33 13 18 1020.2 1020.1 0.0
28/04:00pm 23.1 16.2 2.6 26 9.9 NNW 28 37 15 20 1019.7 1019.6 0.0
28/03:30pm 23.1 16.2 2.6 26 9.9 N 28 35 15 19 1019.6 1019.5 0.0
28/03:00pm 23.1 17.1 3.1 27 9.8 N 24 33 13 18 1019.9 1019.8 0.0
28/02:30pm 22.9 17.6 2.9 27 9.7 NNW 20 30 11 16 1020.5 1020.4 0.0
28/02:00pm 22.9 16.8 2.9 27 9.7 NNW 24 35 13 19 1020.9 1020.8 0.0
28/01:30pm 22.3 15.4 2.4 27 9.6 NNW 28 41 15 22 1021.4 1021.3 0.0
28/01:00pm 21.5 14.9 2.2 28 9.2 N 26 33 14 18 1021.4 1021.3 0.0
28/12:30pm 21.7 15.9 2.4 28 9.2 N 22 32 12 17 1022.5 1022.4 0.0
28/12:00pm 20.5 14.3 2.3 30 8.6 NNW 24 32 13 17 1023.3 1023.2 0.0
28/11:30am 19.2 12.6 2.1 32 8.0 N 26 35 14 19 1023.5 1023.5 0.0
28/11:00am 18.4 12.2 1.9 33 7.6 N 24 35 13 19 1024.3 1024.2 0.0
28/10:30am 17.5 10.9 1.9 35 7.2 N 26 35 14 19 1024.9 1024.8 0.0
28/10:00am 15.7 11.3 2.5 41 6.0 N 15 22 8 12 1025.8 1025.8 0.0
28/09:30am 13.8 10.5 2.4 46 5.1 N 9 13 5 7 1026.3 1026.3 0.0
28/09:00am 13.0 7.1 2.0 47 4.8 N 22 32 12 17 1026.6 1026.6 0.0
28/08:30am 12.0 8.3 2.5 52 4.2 NNE 11 17 6 9 1026.6 1026.6 0.0
28/08:00am 9.9 6.7 3.2 63 2.9 NE 9 13 5 7 1026.9 1026.8 0.0
28/07:30am 9.0 7.2 3.2 67 2.5 ENE 2 7 1 4 1027.2 1027.1 0.0
28/07:00am 7.2 4.0 2.9 74 1.8 SSE 9 11 5 6 1027.3 1027.2 0.0
28/06:30am 7.2 4.2 2.3 71 2.1 SSW 7 11 4 6 1027.3 1027.2 0.0
28/06:00am 8.9 6.6 2.5 64 2.7 NE 4 9 2 5 1027.0 1026.9 0.0
28/05:30am 8.4 5.1 2.4 66 2.6 ENE 9 15 5 8 1026.5 1026.5 0.0
28/05:00am 8.1 5.2 2.4 67 2.4 E 7 9 4 5 1026.4 1026.4 0.0
28/04:30am 8.7 5.0 2.3 64 2.7 ENE 11 13 6 7 1026.6 1026.6 0.0
28/04:00am 8.9 5.6 2.3 63 2.8 ENE 9 13 5 7 1026.9 1026.8 0.0
28/03:30am 9.2 6.2 2.3 62 3.0 NE 7 11 4 6 1027.3 1027.2 0.0
28/03:00am 8.9 4.8 2.5 64 2.7 ENE 13 17 7 9 1027.1 1027.0 0.0
28/02:30am 8.2 4.5 2.4 67 2.5 ENE 11 17 6 9 1027.3 1027.2 0.0
28/02:00am 8.1 4.8 2.6 68 2.3 ENE 9 11 5 6 1028.0 1027.9 0.0
28/01:30am 7.7 4.4 2.6 70 2.2 E 9 13 5 7 1028.2 1028.2 0.0
28/01:00am 7.2 4.4 2.1 70 2.1 E 6 7 3 4 1028.3 1028.3 0.0
28/12:30am 8.6 5.7 2.4 65 2.7 ENE 7 11 4 6 1028.3 1028.3 0.0
28/12:00am 9.2 5.5 2.5 63 2.9 ENE 11 15 6 8 1028.2 1028.2 0.0
 
Date/Time
WST
Temp
°C
App
Temp
°C
Dew
Point
Rel
Hum
%
Delta-T
°C
Wind Press
QNH
hPa
Press
MSL
hPa
Rain
since 9 am
mm
Dir
 
Spd
km/h
Gust
km/h
Spd
kts
Gust
kts
27/11:30pm 10.0 6.0 2.6 60 3.2 ENE 13 19 7 10 1028.2 1028.2 0.0
27/11:00pm 10.3 6.3 2.7 59 3.3 ENE 13 15 7 8 1028.8 1028.8 0.0
27/10:30pm 10.7 6.3 2.5 57 3.6 ENE 15 20 8 11 1028.7 1028.7 0.0
27/10:00pm 10.8 6.4 2.6 57 3.6 ENE 15 20 8 11 1029.0 1029.0 0.0
27/09:30pm 11.2 6.8 2.5 55 3.8 ENE 15 19 8 10 1029.1 1029.1 0.0
27/09:00pm 11.9 8.3 2.9 54 4.0 ENE 11 15 6 8 1029.4 1029.4 0.0
27/08:30pm 11.9 7.9 2.9 54 4.0 ENE 13 17 7 9 1029.3 1029.3 0.0
27/08:00pm 12.5 8.5 2.9 52 4.3 E 13 15 7 8 1029.3 1029.3 0.0
27/07:30pm 12.3 9.1 3.0 53 4.2 E 9 13 5 7 1029.3 1029.3 0.0
27/07:00pm 12.8 9.6 2.9 51 4.4 E 9 13 5 7 1029.0 1029.0 0.0
27/06:30pm 13.4 10.1 2.6 48 4.9 E 9 11 5 6 1028.5 1028.5 0.0
27/06:00pm 14.7 11.0 2.6 44 5.5 ENE 11 15 6 8 1027.9 1027.8 0.0
27/05:30pm 15.7 10.9 2.5 41 6.0 ENE 17 20 9 11 1027.5 1027.4 0.0
27/05:00pm 16.6 11.4 2.2 38 6.6 ENE 19 26 10 14 1028.0 1027.9 0.0
27/04:30pm 17.2 11.9 2.0 36 7.0 ENE 19 28 10 15 1028.3 1028.3 0.0
27/04:00pm 17.7 12.2 2.1 35 7.1 E 20 30 11 16 1028.5 1028.5 0.0
27/03:30pm 17.7 11.9 2.5 36 7.1 ENE 22 30 12 16 1028.7 1028.7 0.0
27/03:00pm 16.9 12.0 2.1 37 6.7 ENE 17 33 9 18 1028.8 1028.8 0.0
27/02:30pm 17.1 12.6 2.3 37 6.8 ENE 15 22 8 12 1029.1 1029.1 0.0

Other Formats:

Comma delimited format used in spreadsheet applications
http://www.bom.gov.au/fwo/IDW60801/IDW60801.94450.axf

JavaScript Object Notation format (JSON) in row-major order
http://www.bom.gov.au/fwo/IDW60801/IDW60801.94450.json